createdAt,value
2022-08-20T19:07:17.318Z,20.20
2022-08-20T19:10:12.941Z,20.20
2022-08-20T19:13:33.625Z,20.10
2022-08-20T19:16:20.300Z,20.10
2022-08-20T19:18:54.191Z,19.90
2022-08-20T19:21:30.667Z,19.90
2022-08-20T19:24:02.715Z,19.80
2022-08-20T19:26:33.076Z,19.80
2022-08-20T19:29:09.766Z,19.80
2022-08-20T19:31:37.774Z,19.80
2022-08-20T19:34:19.809Z,19.80
2022-08-20T19:36:55.644Z,19.80
2022-08-20T19:39:24.736Z,19.80
2022-08-20T19:41:58.473Z,19.70
2022-08-20T19:44:51.058Z,19.70
2022-08-20T19:47:38.239Z,19.60
2022-08-20T19:50:14.971Z,19.60
2022-08-20T19:53:02.798Z,19.50
2022-08-20T19:55:33.582Z,19.50
2022-08-20T19:58:05.195Z,19.50
2022-08-20T20:00:47.851Z,19.50
2022-08-20T20:03:20.517Z,19.40
2022-08-20T20:06:02.140Z,19.40
2022-08-20T20:08:39.527Z,19.30
2022-08-20T20:11:07.757Z,19.20
2022-08-20T20:13:38.547Z,19.20
2022-08-20T20:16:09.651Z,19.20
2022-08-20T20:18:41.837Z,19.20
2022-08-20T20:21:24.607Z,19.10
2022-08-20T20:23:59.651Z,19.20
2022-08-20T20:26:33.253Z,19.10
2022-08-20T20:29:13.063Z,19.10
2022-08-20T20:31:48.739Z,19.20
2022-08-20T20:34:18.690Z,19.10
2022-08-20T20:36:48.214Z,19.10
2022-08-20T20:39:34.376Z,19.10
2022-08-20T20:42:04.983Z,19.00
2022-08-20T20:44:37.309Z,19.00
2022-08-20T20:47:10.082Z,19.00
2022-08-20T20:49:59.045Z,19.00
2022-08-20T20:52:30.569Z,19.00
2022-08-20T20:55:26.575Z,19.00
2022-08-20T20:57:54.136Z,18.90
2022-08-20T21:00:25.379Z,18.90
2022-08-20T21:02:53.157Z,18.80
2022-08-20T21:05:23.547Z,18.90
2022-08-20T21:08:04.483Z,18.90
2022-08-20T21:10:35.662Z,18.80
2022-08-20T21:13:07.018Z,18.80
2022-08-20T21:15:36.085Z,18.70
2022-08-20T21:18:06.815Z,18.60
2022-08-20T21:20:34.452Z,18.50
2022-08-20T21:23:02.178Z,18.40
2022-08-20T21:25:32.046Z,18.40
2022-08-20T21:27:59.444Z,18.30
2022-08-20T21:30:27.752Z,18.30
2022-08-20T21:32:55.549Z,18.20
2022-08-20T21:35:23.607Z,18.10
2022-08-20T21:37:51.533Z,18.00
2022-08-20T21:40:21.711Z,18.00
2022-08-20T21:42:49.768Z,18.00
2022-08-20T21:45:18.523Z,18.00
2022-08-20T21:47:48.871Z,18.00
2022-08-20T21:50:19.577Z,18.00
2022-08-20T21:52:59.479Z,17.90
2022-08-20T21:55:29.410Z,17.80
2022-08-20T21:57:57.967Z,17.70
2022-08-20T22:01:05.445Z,17.60
2022-08-20T22:03:38.889Z,17.60
2022-08-20T22:06:10.564Z,17.70
2022-08-20T22:08:38.574Z,17.80
2022-08-20T22:11:07.730Z,17.90
2022-08-20T22:13:35.636Z,18.00
2022-08-20T22:16:06.624Z,18.00
2022-08-20T22:18:34.931Z,18.00
2022-08-20T22:21:03.206Z,18.00
2022-08-20T22:23:30.854Z,18.00
2022-08-20T22:25:58.323Z,18.00
2022-08-20T22:28:26.956Z,18.00
2022-08-20T22:30:54.427Z,17.90
2022-08-20T22:33:24.129Z,17.80
2022-08-20T22:35:56.655Z,17.70
2022-08-20T22:38:24.666Z,17.70
2022-08-20T22:40:53.060Z,17.50
2022-08-20T22:43:21.281Z,17.40
2022-08-20T22:45:50.866Z,17.30
2022-08-20T22:48:20.630Z,17.20
2022-08-20T22:50:49.002Z,17.20
2022-08-20T22:53:19.599Z,17.30
2022-08-20T22:55:47.649Z,17.20
2022-08-20T22:58:16.337Z,17.40
2022-08-20T23:00:46.120Z,17.40
2022-08-20T23:03:14.341Z,17.50
2022-08-20T23:05:46.654Z,17.50
2022-08-20T23:08:14.655Z,17.60
2022-08-20T23:10:42.224Z,17.60
2022-08-20T23:13:09.866Z,17.60
2022-08-20T23:15:41.430Z,17.60
2022-08-20T23:18:17.035Z,17.60
2022-08-20T23:20:50.711Z,17.60
2022-08-20T23:23:18.961Z,17.50
2022-08-20T23:25:46.818Z,17.50
2022-08-20T23:28:14.352Z,17.40
2022-08-20T23:30:42.506Z,17.40
2022-08-20T23:33:10.134Z,17.30
2022-08-20T23:35:39.810Z,17.20
2022-08-20T23:38:07.969Z,17.10
2022-08-20T23:40:36.496Z,16.90
2022-08-20T23:43:05.252Z,16.80
2022-08-20T23:45:33.469Z,16.60
2022-08-20T23:48:01.280Z,16.50
2022-08-20T23:52:59.115Z,16.30
2022-08-20T23:55:27.192Z,16.20
2022-08-20T23:57:54.882Z,16.20
